Terminal Aerodrome Forecast
Issued by NWS

Home | Current Version | Previous Version | Graphics & Text | Print | Product List | Glossary On
Versions: 1 2 3 4 5 6 7 8 9 10 11 12 13 14 15 16 17 18 19
634
FTUS43 KICT 150714 AAA
TAFCNU
TAF AMD
KCNU 150714Z 1507/1606 17010KT P6SM VCSH SCT030 BKN045
     FM150900 20009KT 5SM -DZ BR VCTS SCT015 BKN025CB
      TEMPO 1509/1511 3SM TSRA BKN015CB
     FM151200 28010KT P6SM BKN025
     FM151500 32015G22KT P6SM BKN150
     FM160200 VRB03KT P6SM SKC=

USA.gov is the U.S. government's official web portal to all federal, state and local government web resources and services.